Time;durP1;ratioP1;P1;durP2;ratioP2;P2;SDS_P1;SDS_P2;PMS_P1;PMS_P2;Temp;Humidity;BMP_temperature;BMP_pressure;BME280_temperature;BME280_humidity;BME280_pressure;Samples;Min_cycle;Max_cycle;Signal;HPM_P1;HPM_P2
2022/05/16 00:00:09;;;;;;;8.83;3.10;;;12.80;1.00;;;;;;5060493;28;20214;-67
2022/05/16 00:02:36;;;;;;;4.30;3.03;;;12.90;1.00;;;;;;5059379;28;20675;-67
2022/05/16 00:05:04;;;;;;;7.10;2.60;;;12.50;99.90;;;;;;5073797;28;20194;-67
2022/05/16 00:07:31;;;;;;;5.67;2.90;;;12.40;1.00;;;;;;5074800;28;20202;-67
2022/05/16 00:09:58;;;;;;;7.63;2.97;;;12.40;1.00;;;;;;5064118;28;20230;-67
2022/05/16 00:12:25;;;;;;;6.90;3.23;;;12.50;99.90;;;;;;5061231;28;20208;-67
2022/05/16 00:14:51;;;;;;;7.20;3.37;;;12.50;99.90;;;;;;5055571;28;20266;-67
2022/05/16 00:17:20;;;;;;;8.23;3.00;;;12.10;1.00;;;;;;5073512;28;20202;-67
2022/05/16 00:19:46;;;;;;;6.60;2.80;;;12.10;1.00;;;;;;5062572;28;20203;-67
2022/05/16 00:22:13;;;;;;;7.87;3.00;;;12.20;1.00;;;;;;5063423;28;20669;-67
2022/05/16 00:24:42;;;;;;;4.40;2.93;;;12.40;99.90;;;;;;5052745;28;20207;-67
2022/05/16 00:27:10;;;;;;;4.97;2.43;;;12.50;99.90;;;;;;5072213;28;20203;-67
2022/05/16 00:29:37;;;;;;;5.30;2.60;;;12.60;76.60;;;;;;5070181;28;20680;-67
2022/05/16 00:32:05;;;;;;;5.23;2.97;;;12.70;1.00;;;;;;5072517;28;20206;-67
2022/05/16 00:34:33;;;;;;;6.07;3.00;;;12.60;1.00;;;;;;5073194;28;20656;-67
2022/05/16 00:37:00;;;;;;;7.73;3.00;;;12.40;99.90;;;;;;5066692;28;20222;-67
2022/05/16 00:39:27;;;;;;;4.57;3.07;;;12.30;1.00;;;;;;5072621;28;20202;-67
2022/05/16 00:41:54;;;;;;;6.73;3.10;;;12.10;1.00;;;;;;5072215;28;20543;-67
2022/05/16 00:44:21;;;;;;;6.43;3.40;;;11.90;1.00;;;;;;5073777;28;20202;-67
2022/05/16 00:46:48;;;;;;;7.23;3.43;;;11.90;1.00;;;;;;5072887;28;20576;-67
2022/05/16 00:49:23;;;;;;;9.90;4.27;;;11.70;1.00;;;;;;5073303;28;20221;-67
2022/05/16 00:51:56;;;;;;;10.33;3.73;;;11.60;1.00;;;;;;5067072;28;20205;-67
2022/05/16 00:54:26;;;;;;;7.97;4.00;;;11.60;1.00;;;;;;5072328;28;20357;-67
2022/05/16 00:56:59;;;;;;;6.20;3.70;;;11.50;1.00;;;;;;5072089;28;20297;-67
2022/05/16 00:59:39;;;;;;;6.97;3.37;;;11.30;1.00;;;;;;5071683;28;20202;-67
2022/05/16 01:04:50;;;;;;;10.03;4.07;;;11.40;1.00;;;;;;5072865;28;20197;-67
2022/05/16 01:07:25;;;;;;;8.07;4.20;;;11.40;1.00;;;;;;5070065;28;20201;-67
2022/05/16 01:09:52;;;;;;;8.97;3.90;;;11.40;1.00;;;;;;5056216;28;20223;-67
2022/05/16 01:12:19;;;;;;;9.97;4.43;;;11.40;1.00;;;;;;5058788;28;20205;-67
2022/05/16 01:14:50;;;;;;;7.90;4.00;;;11.30;1.00;;;;;;5058737;28;20679;-67
2022/05/16 01:17:17;;;;;;;8.97;3.80;;;11.30;1.00;;;;;;5075986;28;20210;-67
2022/05/16 01:19:43;;;;;;;10.50;3.93;;;11.20;1.00;;;;;;5071632;28;20195;-67
2022/05/16 01:22:25;;;;;;;7.17;3.70;;;11.20;1.00;;;;;;5072458;28;20664;-67
2022/05/16 01:24:54;;;;;;;8.20;3.87;;;11.00;1.00;;;;;;5072245;28;20579;-67
2022/05/16 01:27:21;;;;;;;7.20;3.40;;;10.80;1.40;;;;;;5070995;28;20199;-67
2022/05/16 01:29:49;;;;;;;8.03;3.40;;;10.90;23.30;;;;;;5072313;28;20305;-67
2022/05/16 01:32:16;;;;;;;8.43;4.03;;;11.00;1.00;;;;;;5072201;28;20556;-67
2022/05/16 01:34:43;;;;;;;9.03;3.73;;;10.90;5.40;;;;;;5061937;28;20199;-67
2022/05/16 01:37:10;;;;;;;6.40;3.40;;;11.00;1.00;;;;;;5052546;28;20206;-67
2022/05/16 01:39:38;;;;;;;6.57;3.80;;;10.80;5.00;;;;;;5061451;28;20536;-67
2022/05/16 01:42:06;;;;;;;5.90;3.60;;;10.70;4.80;;;;;;5063794;28;20544;-67
2022/05/16 01:44:32;;;;;;;8.20;3.80;;;10.70;15.20;;;;;;5071279;28;20198;-67
2022/05/16 01:46:59;;;;;;;6.83;3.70;;;10.80;1.00;;;;;;5071179;28;20198;-67
2022/05/16 01:49:26;;;;;;;10.40;3.90;;;10.80;1.00;;;;;;5071409;28;20716;-66
2022/05/16 01:51:53;;;;;;;9.13;3.70;;;10.90;1.00;;;;;;5070793;28;20195;-67
2022/05/16 01:54:20;;;;;;;10.87;3.87;;;10.90;1.00;;;;;;5070783;28;20202;-67
2022/05/16 01:56:48;;;;;;;6.77;3.90;;;10.70;1.00;;;;;;5071481;28;20198;-67
2022/05/16 01:59:15;;;;;;;7.67;3.53;;;10.70;1.00;;;;;;5065090;28;20203;-67
2022/05/16 02:01:42;;;;;;;8.53;3.77;;;10.70;43.20;;;;;;5067874;28;20198;-67
2022/05/16 02:04:08;;;;;;;8.50;3.30;;;10.60;99.90;;;;;;5070293;28;20202;-67
2022/05/16 02:06:36;;;;;;;7.37;3.60;;;10.50;99.90;;;;;;5071915;28;20194;-67
2022/05/16 02:09:03;;;;;;;11.40;4.03;;;10.50;99.90;;;;;;5070903;28;20233;-66
2022/05/16 02:11:30;;;;;;;9.07;4.10;;;10.50;99.90;;;;;;5070981;28;20213;-67
2022/05/16 02:13:58;;;;;;;6.17;4.03;;;10.60;99.90;;;;;;5067430;28;20294;-67
2022/05/16 02:16:25;;;;;;;11.13;3.93;;;10.60;99.90;;;;;;5066758;28;20199;-66
2022/05/16 02:18:52;;;;;;;8.63;3.97;;;10.60;99.90;;;;;;5068307;28;20679;-67
2022/05/16 02:26:48;;;;;;;8.33;3.87;;;10.30;99.90;;;;;;5051462;28;20241;-66
2022/05/16 02:29:19;;;;;;;7.33;4.03;;;10.40;99.90;;;;;;5065283;28;20229;-67
2022/05/16 02:31:47;;;;;;;13.90;4.00;;;10.40;99.90;;;;;;5071407;28;20547;-67
2022/05/16 02:34:14;;;;;;;10.60;4.07;;;10.50;99.90;;;;;;5070903;28;20209;-66
2022/05/16 02:36:40;;;;;;;7.57;3.97;;;10.50;99.90;;;;;;5066217;28;20574;-67
2022/05/16 02:39:08;;;;;;;10.43;4.70;;;10.40;99.90;;;;;;5071087;28;20238;-67
2022/05/16 02:41:34;;;;;;;9.53;3.77;;;10.40;99.90;;;;;;5070737;28;20202;-67
2022/05/16 02:44:02;;;;;;;10.13;3.87;;;10.30;99.90;;;;;;5071598;28;20648;-66
2022/05/16 02:46:31;;;;;;;7.13;4.00;;;10.20;99.90;;;;;;5065785;28;20238;-66
2022/05/16 02:48:58;;;;;;;10.77;4.00;;;10.30;99.90;;;;;;5065603;28;20218;-66
2022/05/16 02:51:25;;;;;;;9.53;4.10;;;10.40;99.90;;;;;;5071304;28;20675;-66
2022/05/16 02:53:52;;;;;;;7.33;3.83;;;10.50;99.90;;;;;;5070209;28;20251;-67
2022/05/16 02:56:19;;;;;;;11.23;4.50;;;10.50;99.90;;;;;;5063286;28;20203;-66
2022/05/16 02:58:45;;;;;;;6.23;4.13;;;10.40;99.90;;;;;;5063205;28;20201;-67
2022/05/16 03:01:13;;;;;;;7.00;3.50;;;10.10;99.90;;;;;;5070991;28;20672;-66
2022/05/16 03:03:42;;;;;;;8.37;3.77;;;10.10;99.90;;;;;;5070051;28;20191;-66
2022/05/16 03:06:09;;;;;;;6.47;3.90;;;10.10;99.90;;;;;;5071512;28;20199;-67
2022/05/16 03:08:37;;;;;;;6.93;3.93;;;10.00;99.90;;;;;;5070915;28;20660;-66
2022/05/16 03:11:05;;;;;;;7.17;3.60;;;10.00;99.90;;;;;;5057494;28;20298;-67
2022/05/16 03:13:32;;;;;;;9.43;4.20;;;9.90;99.90;;;;;;5050980;28;20580;-67
2022/05/16 03:15:59;;;;;;;8.00;3.80;;;9.90;99.90;;;;;;5068474;28;20199;-67
2022/05/16 03:18:28;;;;;;;7.30;3.80;;;10.00;99.90;;;;;;5070539;28;20209;-67
2022/05/16 03:20:57;;;;;;;7.60;4.03;;;10.00;99.90;;;;;;5067609;28;20202;-67
2022/05/16 03:23:24;;;;;;;5.30;3.57;;;10.00;99.90;;;;;;5055640;28;20670;-67
2022/05/16 03:25:51;;;;;;;9.27;3.37;;;10.00;99.90;;;;;;5068002;28;20272;-67
2022/05/16 03:28:17;;;;;;;5.87;3.57;;;10.00;99.90;;;;;;5075092;28;20649;-67
2022/05/16 03:30:44;;;;;;;4.33;3.50;;;10.10;99.90;;;;;;5055915;28;20235;-67
2022/05/16 03:33:12;;;;;;;7.63;3.60;;;10.20;99.90;;;;;;5066508;28;20209;-66
2022/05/16 03:35:39;;;;;;;8.33;3.60;;;10.10;99.90;;;;;;5074327;28;20206;-67
2022/05/16 03:38:07;;;;;;;6.87;3.27;;;10.10;99.90;;;;;;5074548;28;20202;-67
2022/05/16 03:40:42;;;;;;;6.13;3.73;;;10.10;99.90;;;;;;5074064;28;20195;-67
2022/05/16 03:43:09;;;;;;;5.33;3.50;;;10.10;99.90;;;;;;5073919;28;20194;-66
2022/05/16 03:45:36;;;;;;;5.17;3.47;;;10.10;99.90;;;;;;5073814;28;20198;-66
2022/05/16 03:48:03;;;;;;;5.10;3.40;;;10.20;99.90;;;;;;5067761;28;20660;-67
2022/05/16 03:50:30;;;;;;;6.10;3.60;;;10.30;99.90;;;;;;5072967;28;20218;-67
2022/05/16 03:52:59;;;;;;;7.30;3.40;;;10.20;97.80;;;;;;5073792;28;20206;-67
2022/05/16 03:55:29;;;;;;;5.33;3.70;;;10.20;99.90;;;;;;5072975;28;20209;-67
2022/05/16 03:57:55;;;;;;;6.47;3.53;;;10.60;41.10;;;;;;5068446;28;20198;-67
2022/05/16 04:00:22;;;;;;;5.40;3.10;;;10.90;1.00;;;;;;5073999;28;20199;-67
2022/05/16 04:02:50;;;;;;;4.33;2.90;;;11.30;1.00;;;;;;5073780;28;20210;-67
2022/05/16 04:05:19;;;;;;;7.40;3.30;;;11.10;1.00;;;;;;5063982;28;20199;-67
2022/05/16 04:07:47;;;;;;;5.63;3.30;;;11.60;1.00;;;;;;5073938;28;20667;-67
2022/05/16 04:10:15;;;;;;;5.37;3.60;;;12.00;1.00;;;;;;5070366;28;20335;-67
2022/05/16 04:12:44;;;;;;;5.33;3.37;;;11.80;1.00;;;;;;5074067;28;20202;-67
2022/05/16 04:15:13;;;;;;;5.77;3.33;;;11.20;1.00;;;;;;5073443;28;20202;-67
2022/05/16 04:17:41;;;;;;;4.47;3.10;;;11.00;1.00;;;;;;5068484;28;20207;-67
2022/05/16 04:20:09;;;;;;;6.63;3.03;;;11.00;1.00;;;;;;5072833;28;20202;-67
2022/05/16 04:22:36;;;;;;;7.63;3.57;;;11.00;1.00;;;;;;5074017;28;20281;-67
2022/05/16 04:25:03;;;;;;;5.63;3.47;;;11.10;1.00;;;;;;5072862;28;20195;-67
2022/05/16 04:27:30;;;;;;;4.13;3.10;;;11.30;1.00;;;;;;5053463;28;20207;-67
2022/05/16 04:29:58;;;;;;;8.27;2.90;;;11.90;1.00;;;;;;5069099;28;20233;-67
2022/05/16 04:32:25;;;;;;;4.07;3.00;;;12.30;99.90;;;;;;5073553;28;20209;-67
2022/05/16 04:34:52;;;;;;;5.40;2.90;;;12.60;1.00;;;;;;5061112;28;20207;-67
2022/05/16 04:37:19;;;;;;;6.67;3.17;;;12.20;1.00;;;;;;5054013;28;20209;-67
2022/05/16 04:39:46;;;;;;;6.70;3.33;;;12.10;99.90;;;;;;5065200;28;20523;-67
2022/05/16 04:44:58;;;;;;;4.70;2.63;;;12.00;99.90;;;;;;5073432;28;20213;-67
2022/05/16 04:47:26;;;;;;;6.87;3.13;;;12.30;99.90;;;;;;5071793;28;20206;-67
2022/05/16 04:49:53;;;;;;;5.40;2.70;;;12.20;23.50;;;;;;5072929;28;20244;-67
2022/05/16 04:52:20;;;;;;;7.03;3.60;;;13.00;1.00;;;;;;5062105;28;20214;-67
2022/05/16 04:54:48;;;;;;;3.33;2.83;;;12.70;99.90;;;;;;5056880;28;20700;-67
2022/05/16 04:57:15;;;;;;;4.17;3.03;;;12.60;1.00;;;;;;5072950;28;20301;-67
2022/05/16 04:59:42;;;;;;;4.03;2.70;;;13.00;1.00;;;;;;5062157;28;20207;-67
2022/05/16 05:02:10;;;;;;;6.60;3.40;;;12.90;1.00;;;;;;5068247;28;20203;-74
2022/05/16 05:04:39;;;;;;;8.43;3.50;;;12.70;1.00;;;;;;5065512;28;20202;-75
2022/05/16 05:07:06;;;;;;;8.50;3.53;;;12.70;1.00;;;;;;5065240;28;20601;-74
2022/05/16 05:14:31;;;;;;;4.97;3.30;;;12.60;1.00;;;;;;5070601;28;20215;-74
2022/05/16 05:15:08;;;;;;;6.33;3.43;;;12.50;1.00;;;;;;5057589;28;20216;-74
2022/05/16 05:17:36;;;;;;;5.93;3.50;;;12.60;1.00;;;;;;5066253;28;20209;-74
2022/05/16 05:20:12;;;;;;;6.17;3.73;;;12.60;1.00;;;;;;5071392;28;20209;-74
2022/05/16 05:22:40;;;;;;;6.83;3.30;;;12.60;1.00;;;;;;5068680;28;20676;-74
2022/05/16 05:25:08;;;;;;;6.53;3.57;;;12.70;1.00;;;;;;5072846;28;20206;-74
2022/05/16 05:27:35;;;;;;;4.37;3.13;;;12.80;1.00;;;;;;5066139;28;20208;-74
2022/05/16 05:30:02;;;;;;;9.73;3.50;;;13.00;1.00;;;;;;5072651;28;20222;-74
2022/05/16 05:32:29;;;;;;;7.80;3.70;;;13.20;1.00;;;;;;5072982;28;20293;-74
2022/05/16 05:34:57;;;;;;;6.20;3.50;;;13.30;1.00;;;;;;5060198;28;20645;-74
2022/05/16 05:37:24;;;;;;;6.90;3.60;;;13.50;1.00;;;;;;5062712;28;20673;-74
2022/05/16 05:39:52;;;;;;;7.93;3.40;;;13.70;1.00;;;;;;5071523;28;20194;-74
2022/05/16 05:42:19;;;;;;;6.90;3.40;;;13.70;99.90;;;;;;5072223;28;20248;-73
2022/05/16 05:44:46;;;;;;;9.00;3.70;;;13.90;99.90;;;;;;5072761;28;20661;-73
2022/05/16 05:47:13;;;;;;;8.27;3.70;;;13.60;1.00;;;;;;5061944;28;20206;-74
2022/05/16 05:49:40;;;;;;;8.33;3.83;;;13.70;1.00;;;;;;5052567;28;20229;-74
2022/05/16 05:52:09;;;;;;;7.20;3.50;;;13.90;1.00;;;;;;5052840;28;20303;-73
2022/05/16 05:54:35;;;;;;;4.57;3.83;;;14.00;1.00;;;;;;5052001;28;20293;-74
2022/05/16 05:57:02;;;;;;;9.20;3.63;;;14.00;1.00;;;;;;5066692;28;20210;-73
2022/05/16 05:59:29;;;;;;;7.87;3.60;;;14.30;99.90;;;;;;5071569;28;20205;-73
2022/05/16 06:01:56;;;;;;;7.93;3.83;;;14.40;15.00;;;;;;5072221;28;20209;-73
2022/05/16 06:04:23;;;;;;;5.90;3.43;;;14.40;1.00;;;;;;5071183;28;20202;-74
2022/05/16 06:06:50;;;;;;;6.00;3.73;;;14.10;99.90;;;;;;5072415;28;20569;-74
2022/05/16 06:09:18;;;;;;;8.03;3.77;;;14.40;99.90;;;;;;5071459;28;20199;-73
2022/05/16 06:11:46;;;;;;;10.13;3.73;;;14.60;1.00;;;;;;5071470;28;20629;-73
2022/05/16 06:14:13;;;;;;;9.23;3.97;;;14.70;1.00;;;;;;5072328;28;20206;-73
2022/05/16 06:16:40;;;;;;;7.00;3.63;;;14.70;1.00;;;;;;5072394;28;20210;-73
2022/05/16 06:19:08;;;;;;;7.97;3.90;;;14.80;1.00;;;;;;5071508;28;20667;-73
2022/05/16 06:21:35;;;;;;;8.50;3.77;;;15.00;99.90;;;;;;5072045;28;20237;-74
2022/05/16 06:24:02;;;;;;;4.70;3.67;;;15.40;1.00;;;;;;5071725;28;20202;-74
2022/05/16 06:26:30;;;;;;;8.30;4.03;;;15.60;1.00;;;;;;5071503;28;20186;-73
2022/05/16 06:28:58;;;;;;;5.83;3.53;;;15.50;1.00;;;;;;5072028;28;20206;-73
2022/05/16 06:31:25;;;;;;;7.30;4.20;;;15.30;1.00;;;;;;5071676;28;20225;-74
2022/05/16 06:33:51;;;;;;;7.80;4.20;;;15.40;1.00;;;;;;5071927;28;20669;-73
2022/05/16 06:36:18;;;;;;;10.30;4.03;;;15.60;99.90;;;;;;5071828;28;20214;-73
2022/05/16 06:38:45;;;;;;;7.77;4.07;;;15.30;1.00;;;;;;5071122;28;20217;-73
2022/05/16 06:41:12;;;;;;;13.47;4.33;;;15.50;1.00;;;;;;5071208;28;20194;-73
2022/05/16 06:43:40;;;;;;;8.47;3.80;;;15.60;1.00;;;;;;5072134;28;20653;-73
2022/05/16 06:46:07;;;;;;;8.37;4.10;;;15.60;1.00;;;;;;5071700;28;20225;-73
2022/05/16 06:48:33;;;;;;;7.00;4.07;;;15.70;99.90;;;;;;5057667;28;20210;-73
2022/05/16 06:51:00;;;;;;;8.10;3.90;;;15.80;99.90;;;;;;5050990;28;20226;-73
2022/05/16 06:53:29;;;;;;;12.47;4.37;;;15.90;99.90;;;;;;5050717;28;20230;-73
2022/05/16 06:55:57;;;;;;;11.63;4.57;;;16.20;99.90;;;;;;5052491;28;20233;-74
2022/05/16 06:58:24;;;;;;;13.20;5.30;;;16.00;99.90;;;;;;5056052;28;20569;-73
2022/05/16 07:00:53;;;;;;;10.87;4.23;;;16.30;99.90;;;;;;5055234;28;20207;-74
2022/05/16 07:03:20;;;;;;;8.70;4.03;;;16.20;1.00;;;;;;5055691;28;20209;-73
2022/05/16 07:05:48;;;;;;;7.83;4.30;;;16.40;99.90;;;;;;5055793;28;20218;-73
2022/05/16 07:08:15;;;;;;;8.00;3.87;;;16.40;1.00;;;;;;5055912;28;20574;-73
2022/05/16 07:10:43;;;;;;;6.90;4.00;;;16.60;1.00;;;;;;5055274;28;20235;-73
2022/05/16 07:13:10;;;;;;;6.23;3.53;;;16.70;1.00;;;;;;5055894;28;20203;-73
2022/05/16 07:15:37;;;;;;;6.97;3.37;;;16.70;99.90;;;;;;5055050;28;20210;-73
2022/05/16 07:18:06;;;;;;;9.33;3.50;;;16.70;99.90;;;;;;5055282;28;20225;-73
2022/05/16 07:20:33;;;;;;;4.77;3.53;;;16.60;20.60;;;;;;5055091;28;20203;-73
2022/05/16 07:23:00;;;;;;;5.95;3.55;;;16.90;99.90;;;;;;5055026;28;20216;-74
2022/05/16 07:25:28;;;;;;;7.47;3.60;;;16.80;63.00;;;;;;5055014;28;20225;-73
2022/05/16 07:27:59;;;;;;;7.70;3.10;;;16.90;99.90;;;;;;5055532;28;20689;-73
2022/05/16 07:30:29;;;;;;;7.30;3.22;;;17.10;1.00;;;;;;5054866;28;20288;-73
2022/05/16 07:32:56;;;;;;;4.82;2.90;;;17.10;1.00;;;;;;5054944;28;20214;-73
2022/05/16 07:35:27;;;;;;;6.95;3.15;;;17.30;11.70;;;;;;5054973;28;20215;-74
2022/05/16 07:37:54;;;;;;;13.45;3.92;;;17.30;1.00;;;;;;5055033;28;20203;-73
2022/05/16 07:40:23;;;;;;;7.47;3.28;;;17.40;1.00;;;;;;5054448;28;20230;-73
2022/05/16 07:42:51;;;;;;;6.53;3.85;;;17.60;1.00;;;;;;5055506;28;20261;-73
2022/05/16 07:45:18;;;;;;;6.55;3.30;;;17.60;1.00;;;;;;5054356;28;20223;-73
2022/05/16 07:47:45;;;;;;;6.85;3.20;;;17.80;1.00;;;;;;5069346;28;20218;-73
2022/05/16 07:50:13;;;;;;;5.43;2.65;;;18.00;1.00;;;;;;5073747;28;20198;-73
2022/05/16 07:52:45;;;;;;;5.35;2.92;;;17.90;1.00;;;;;;5074657;28;20702;-73
2022/05/16 07:55:16;;;;;;;4.88;2.90;;;18.00;99.90;;;;;;5074157;28;20300;-73
2022/05/16 07:57:43;;;;;;;4.72;2.80;;;18.30;99.90;;;;;;5073966;28;20573;-74
2022/05/16 08:00:11;;;;;;;4.90;3.10;;;18.30;99.90;;;;;;5060767;28;20210;-73
2022/05/16 08:02:39;;;;;;;7.30;2.88;;;18.30;99.90;;;;;;5054773;28;20206;-73
2022/05/16 08:05:06;;;;;;;5.95;3.20;;;18.50;99.90;;;;;;5054282;28;20689;-73
2022/05/16 08:07:33;;;;;;;7.68;3.08;;;18.50;23.60;;;;;;5054649;28;20233;-73
2022/05/16 08:12:47;;;;;;;3.67;2.83;;;18.60;99.90;;;;;;5053922;28;20237;-73
2022/05/16 08:15:13;;;;;;;8.48;3.22;;;18.70;99.90;;;;;;5054423;28;20759;-73
2022/05/16 08:17:41;;;;;;;6.95;2.85;;;18.60;91.30;;;;;;5054285;28;20666;-73
2022/05/16 08:20:09;;;;;;;7.75;2.90;;;18.80;99.90;;;;;;5053773;28;20210;-73
2022/05/16 08:22:36;;;;;;;37.75;5.18;;;18.90;1.00;;;;;;5053771;28;20218;-66
2022/05/16 08:25:06;;;;;;;6.10;2.85;;;18.90;1.00;;;;;;5053379;28;20199;-66
2022/05/16 08:27:32;;;;;;;9.05;3.58;;;18.90;1.00;;;;;;5053450;28;20199;-66
2022/05/16 08:29:59;;;;;;;5.88;2.65;;;19.30;1.00;;;;;;5053853;28;20545;-66
2022/05/16 08:32:26;;;;;;;7.75;2.90;;;19.40;1.00;;;;;;5054085;28;20229;-66
2022/05/16 08:34:58;;;;;;;5.53;3.08;;;19.50;1.00;;;;;;5053154;28;20298;-66
2022/05/16 08:40:12;;;;;;;5.85;2.90;;;19.70;1.00;;;;;;5052431;28;20213;-66
2022/05/16 08:42:50;;;;;;;6.75;3.22;;;19.60;1.00;;;;;;5052676;28;20213;-66
2022/05/16 08:45:19;;;;;;;4.03;2.60;;;19.90;1.00;;;;;;5053582;28;20756;-66
2022/05/16 08:47:54;;;;;;;7.75;2.95;;;20.20;99.90;;;;;;5053290;28;20202;-66
2022/05/16 08:50:26;;;;;;;9.48;3.50;;;20.20;99.90;;;;;;5053138;28;20656;-66
2022/05/16 08:52:59;;;;;;;8.27;3.05;;;20.30;99.90;;;;;;5053372;28;20207;-66
2022/05/16 08:55:33;;;;;;;5.78;2.95;;;20.70;99.90;;;;;;5053301;28;20213;-66
2022/05/16 08:58:06;;;;;;;3.40;2.35;;;21.00;99.90;;;;;;5053849;28;20214;-66
2022/05/16 09:00:41;;;;;;;10.88;3.17;;;21.40;94.50;;;;;;5053104;28;20213;-66
2022/05/16 09:03:13;;;;;;;6.97;2.72;;;21.60;1.00;;;;;;5053185;28;20624;-66
2022/05/16 09:05:45;;;;;;;6.28;2.85;;;21.90;1.00;;;;;;5053447;28;20229;-66
2022/05/16 09:08:17;;;;;;;9.02;2.72;;;22.40;1.00;;;;;;5052967;28;20560;-66
2022/05/16 09:11:04;;;;;;;7.15;3.13;;;22.60;1.00;;;;;;5054975;28;20222;-66
2022/05/16 09:13:47;;;;;;;6.60;2.95;;;22.80;1.00;;;;;;5058258;28;20199;-66
2022/05/16 09:16:45;;;;;;;6.13;3.25;;;23.20;1.00;;;;;;5053649;28;20575;-66
2022/05/16 09:19:29;;;;;;;7.32;3.00;;;23.00;1.00;;;;;;5052482;28;20213;-66
2022/05/16 09:22:04;;;;;;;4.13;2.75;;;23.10;1.00;;;;;;5073211;28;20209;-66
2022/05/16 09:24:35;;;;;;;6.60;2.92;;;23.90;1.00;;;;;;5074214;28;20594;-66
2022/05/16 09:27:10;;;;;;;9.60;3.63;;;24.40;1.00;;;;;;5064141;28;20246;-66
2022/05/16 09:29:39;;;;;;;6.65;3.03;;;24.10;1.00;;;;;;5051969;28;20216;-66
2022/05/16 09:32:10;;;;;;;5.28;2.90;;;24.10;1.00;;;;;;5052590;28;20234;-67
2022/05/16 09:34:37;;;;;;;5.70;2.90;;;24.50;1.00;;;;;;5052609;28;20203;-66
2022/05/16 09:37:05;;;;;;;6.43;3.00;;;25.10;1.00;;;;;;5052187;28;20218;-67
2022/05/16 09:39:33;;;;;;;10.35;3.00;;;24.70;1.00;;;;;;5052378;28;20242;-66
2022/05/16 09:42:03;;;;;;;8.25;2.70;;;24.70;1.00;;;;;;5051890;28;20205;-66
2022/05/16 09:44:34;;;;;;;5.60;3.20;;;24.50;1.00;;;;;;5052675;28;20214;-66
2022/05/16 09:47:26;;;;;;;8.30;3.05;;;24.60;1.00;;;;;;5052004;28;20668;-66
2022/05/16 09:50:14;;;;;;;4.68;2.63;;;24.80;1.00;;;;;;5052243;28;20218;-66
2022/05/16 09:52:45;;;;;;;6.68;3.03;;;24.80;1.00;;;;;;5052308;28;20750;-66
2022/05/16 09:55:15;;;;;;;7.22;3.00;;;24.60;1.00;;;;;;5052137;28;20206;-66
2022/05/16 09:57:49;;;;;;;7.20;3.25;;;25.30;1.00;;;;;;5052537;28;20658;-66
2022/05/16 10:00:23;;;;;;;6.95;2.83;;;25.60;1.00;;;;;;5052333;28;20206;-67
2022/05/16 10:03:00;;;;;;;5.72;2.70;;;25.30;99.90;;;;;;5052020;28;20225;-66
2022/05/16 10:05:31;;;;;;;8.30;3.30;;;25.20;1.00;;;;;;5051855;28;20605;-66
2022/05/16 10:08:04;;;;;;;8.48;3.38;;;25.10;99.90;;;;;;5051590;28;20242;-66
2022/05/16 10:10:36;;;;;;;9.88;3.08;;;25.00;99.90;;;;;;5051582;28;20206;-66
2022/05/16 10:13:03;;;;;;;5.65;2.80;;;25.50;1.00;;;;;;5051233;28;20300;-66
2022/05/16 10:15:33;;;;;;;7.72;3.28;;;25.40;99.90;;;;;;5051856;28;20257;-66
2022/05/16 10:18:03;;;;;;;8.05;3.38;;;25.10;99.90;;;;;;5052453;28;20475;-66
2022/05/16 10:20:34;;;;;;;15.30;4.55;;;25.50;99.90;;;;;;5052151;28;20680;-66
2022/05/16 10:23:04;;;;;;;7.93;3.28;;;25.90;99.90;;;;;;5050833;28;20203;-66
2022/05/16 10:25:35;;;;;;;7.10;3.10;;;25.70;99.90;;;;;;5051166;28;20211;-66
2022/05/16 10:28:08;;;;;;;5.28;3.15;;;25.70;99.90;;;;;;5050631;28;20669;-66
2022/05/16 10:33:27;;;;;;;5.70;3.20;;;25.40;99.90;;;;;;5055524;28;20210;-66
2022/05/16 10:35:58;;;;;;;5.40;2.83;;;25.20;99.90;;;;;;5056331;28;20598;-66
2022/05/16 10:38:33;;;;;;;7.40;3.17;;;25.00;1.00;;;;;;5055728;28;20203;-66
2022/05/16 10:41:03;;;;;;;7.00;3.35;;;24.70;1.00;;;;;;5071639;28;20197;-66
2022/05/16 10:43:38;;;;;;;5.03;2.88;;;24.70;1.00;;;;;;5073271;28;20202;-66
2022/05/16 10:46:10;;;;;;;8.80;3.22;;;24.90;1.00;;;;;;5075980;28;20194;-66
2022/05/16 10:48:44;;;;;;;8.23;3.17;;;25.20;1.00;;;;;;5075278;28;20552;-66
2022/05/16 10:51:16;;;;;;;7.25;3.35;;;25.30;1.00;;;;;;5073371;28;20202;-67
2022/05/16 10:53:59;;;;;;;4.45;2.70;;;25.70;1.00;;;;;;5075931;28;20218;-66
2022/05/16 10:57:02;;;;;;;7.82;3.13;;;25.60;99.90;;;;;;5075585;28;20209;-67
2022/05/16 10:59:54;;;;;;;6.07;3.38;;;26.50;99.90;;;;;;5056765;28;20228;-67
2022/05/16 11:02:34;;;;;;;5.70;3.33;;;25.80;99.90;;;;;;5075171;28;20202;-66
2022/05/16 11:05:23;;;;;;;5.78;3.40;;;26.00;99.90;;;;;;5075604;28;20213;-67
2022/05/16 11:08:03;;;;;;;7.63;3.10;;;26.10;99.90;;;;;;5075022;28;20194;-67
2022/05/16 11:10:37;;;;;;;7.90;3.65;;;25.90;99.90;;;;;;5075181;28;20208;-66
2022/05/16 11:13:12;;;;;;;9.75;3.13;;;25.80;99.90;;;;;;5065646;28;20229;-66
2022/05/16 11:15:43;;;;;;;7.90;3.78;;;25.60;99.90;;;;;;5074929;28;20201;-66
2022/05/16 11:18:22;;;;;;;7.05;3.28;;;26.20;1.00;;;;;;5073780;28;20194;-67
2022/05/16 11:20:56;;;;;;;6.90;3.30;;;27.00;1.00;;;;;;5070261;28;20210;-66
2022/05/16 11:23:32;;;;;;;7.35;3.55;;;26.30;99.90;;;;;;5053914;28;20198;-66
2022/05/16 11:26:07;;;;;;;5.47;3.00;;;26.10;99.90;;;;;;5069211;28;20201;-67
2022/05/16 11:28:40;;;;;;;7.72;3.40;;;26.10;99.90;;;;;;5055103;28;20657;-66
2022/05/16 11:31:09;;;;;;;6.57;3.53;;;26.10;99.90;;;;;;5056561;28;20202;-67
2022/05/16 11:33:46;;;;;;;4.60;3.13;;;26.00;99.90;;;;;;5075276;28;20680;-66
2022/05/16 11:36:31;;;;;;;6.93;3.10;;;25.90;99.90;;;;;;5070155;28;20221;-67
2022/05/16 11:39:06;;;;;;;6.10;3.30;;;25.90;99.90;;;;;;5073617;28;20600;-68
2022/05/16 11:41:55;;;;;;;7.35;4.18;;;25.70;1.00;;;;;;5074576;28;20544;-73
2022/05/16 11:44:30;;;;;;;6.28;3.05;;;25.60;1.00;;;;;;5075027;28;20203;-74
2022/05/16 11:47:06;;;;;;;6.70;4.00;;;25.60;1.00;;;;;;5074662;28;20244;-72
2022/05/16 11:49:41;;;;;;;6.18;3.10;;;25.90;1.00;;;;;;5067183;28;20217;-73
2022/05/16 11:52:27;;;;;;;7.35;3.50;;;26.20;1.00;;;;;;5063584;28;20229;-73
2022/05/16 11:54:59;;;;;;;7.88;3.30;;;26.30;1.00;;;;;;5074641;28;20213;-73
2022/05/16 12:00:33;;;;;;;5.20;3.40;;;26.40;99.90;;;;;;5030127;28;20586;-74
2022/05/16 12:03:18;;;;;;;9.57;3.75;;;26.60;99.90;;;;;;5074475;28;20205;-72
2022/05/16 12:05:49;;;;;;;7.25;3.45;;;26.10;99.90;;;;;;5073301;28;20260;-74
2022/05/16 12:08:39;;;;;;;6.28;3.38;;;25.90;99.90;;;;;;5071160;28;20202;-73
2022/05/16 12:11:19;;;;;;;7.20;3.35;;;26.10;99.90;;;;;;5065050;28;20209;-73
2022/05/16 12:14:22;;;;;;;5.60;3.25;;;26.40;99.90;;;;;;5056705;28;20202;-73
2022/05/16 12:16:55;;;;;;;6.38;3.63;;;26.40;99.90;;;;;;5048652;28;20579;-72
2022/05/16 12:19:34;;;;;;;4.95;2.97;;;26.60;99.90;;;;;;5070519;28;20205;-72
2022/05/16 12:22:07;;;;;;;6.38;3.30;;;26.80;99.90;;;;;;5063223;28;20806;-72
2022/05/16 12:25:10;;;;;;;5.75;3.50;;;26.90;99.90;;;;;;5053796;28;20203;-73
2022/05/16 12:27:38;;;;;;;6.57;3.38;;;26.60;99.90;;;;;;5054330;28;20563;-73
2022/05/16 12:30:08;;;;;;;7.95;3.50;;;26.30;99.90;;;;;;5070111;28;20649;-72
2022/05/16 12:32:55;;;;;;;7.10;3.40;;;26.50;99.90;;;;;;5054476;28;20227;-73
2022/05/16 12:35:42;;;;;;;4.93;3.42;;;26.50;99.90;;;;;;5068064;28;21127;-72
2022/05/16 12:38:14;;;;;;;4.50;3.10;;;26.60;99.90;;;;;;5058590;28;20202;-73
2022/05/16 12:41:10;;;;;;;6.50;3.58;;;26.30;99.90;;;;;;5068082;28;20213;-74
2022/05/16 12:43:50;;;;;;;5.72;3.20;;;26.40;99.90;;;;;;5061431;28;20209;-73
2022/05/16 12:46:40;;;;;;;6.97;3.75;;;26.50;99.90;;;;;;5061699;28;20646;-74
2022/05/16 12:49:39;;;;;;;8.05;3.83;;;26.40;99.90;;;;;;5059208;28;20420;-74
2022/05/16 12:52:16;;;;;;;4.82;3.30;;;26.40;99.90;;;;;;5072633;28;20248;-73
2022/05/16 12:55:22;;;;;;;6.07;3.40;;;26.00;99.90;;;;;;5069735;28;20191;-75
2022/05/16 12:58:02;;;;;;;5.30;3.35;;;25.60;1.00;;;;;;5073265;28;20202;-74
2022/05/16 13:00:35;;;;;;;8.98;3.80;;;25.90;1.00;;;;;;5073397;28;20206;-74
2022/05/16 13:03:22;;;;;;;6.15;3.75;;;26.00;1.00;;;;;;5073537;28;20539;-74
2022/05/16 13:05:59;;;;;;;6.53;3.67;;;25.90;1.00;;;;;;5061789;28;20259;-75
2022/05/16 13:08:32;;;;;;;6.85;3.70;;;25.90;1.00;;;;;;5055741;28;20211;-73
2022/05/16 13:11:12;;;;;;;6.10;3.80;;;25.60;1.00;;;;;;5051045;28;20594;-73
2022/05/16 13:13:56;;;;;;;8.07;3.45;;;25.30;1.00;;;;;;5046413;28;20704;-75
2022/05/16 13:16:27;;;;;;;6.93;3.88;;;25.40;1.00;;;;;;5045836;28;20239;-74
2022/05/16 13:19:01;;;;;;;7.43;3.50;;;25.30;1.00;;;;;;5047659;28;20207;-72
2022/05/16 13:21:37;;;;;;;5.78;4.00;;;25.20;1.00;;;;;;5065395;28;20221;-74
2022/05/16 13:24:10;;;;;;;5.72;3.88;;;25.00;1.00;;;;;;5064810;28;20202;-73
2022/05/16 13:29:22;;;;;;;6.40;3.85;;;24.80;1.00;;;;;;5061150;28;20212;-74
2022/05/16 13:31:52;;;;;;;6.40;3.97;;;24.70;1.00;;;;;;5065031;28;20513;-75
2022/05/16 13:34:33;;;;;;;7.85;4.05;;;24.60;1.00;;;;;;5064391;28;20206;-73
2022/05/16 13:37:01;;;;;;;10.23;4.28;;;24.30;99.90;;;;;;5065265;28;20862;-71